Terminal Aerodrome Forecast
Issued by NWS

Home | Current Version | Previous Version | Graphics & Text | Print | Product List | Glossary Off
Versions: 1 2 3 4 5 6 7 8 9 10 11 12 13 14 15 16 17 18 19 20 21 22 23 24 25 26 27 28 29 30 31 32 33 34 35 36 37 38 39

000
FTUS43 KGRB 312334
TAFRHI
TAF
KRHI 312334Z 0100/0124 21009G15KT P6SM SKC
     FM010200 21007KT P6SM SKC
     FM010400 VRB03KT 5SM BR SCT015
     FM010900 VRB03KT 3SM BR SCT003 BKN010
      TEMPO 0110/0114 1SM BR BKN003
     FM011400 21006KT P6SM SCT007 SCT015
     FM011800 21010G15KT P6SM SCT200=

USA.gov is the U.S. government's official web portal to all federal, state and local government web resources and services.